createdAt,value
2023-04-18T00:01:50.703Z,16.88
2023-04-18T00:04:44.791Z,15.90
2023-04-18T00:07:38.624Z,16.85
2023-04-18T00:10:25.811Z,16.73
2023-04-18T00:13:19.652Z,16.00
2023-04-18T00:16:08.655Z,15.23
2023-04-18T00:19:03.598Z,14.50
2023-04-18T00:22:00.651Z,15.00
2023-04-18T00:24:51.086Z,14.55
2023-04-18T00:27:45.664Z,13.13
2023-04-18T00:30:32.701Z,13.13
2023-04-18T00:33:26.658Z,13.50
2023-04-18T00:36:20.663Z,13.55
2023-04-18T00:39:14.691Z,14.25
2023-04-18T00:42:09.745Z,14.80
2023-04-18T00:44:56.861Z,14.65
2023-04-18T00:47:50.701Z,14.65
2023-04-18T00:50:38.291Z,13.23
2023-04-18T00:53:32.667Z,13.35
2023-04-18T00:56:19.783Z,12.65
2023-04-18T00:59:14.693Z,11.82
2023-04-18T01:02:03.790Z,11.80
2023-04-18T01:04:57.721Z,11.82
2023-04-18T01:07:58.807Z,12.05
2023-04-18T01:10:58.765Z,10.35
2023-04-18T01:14:08.804Z,10.98
2023-04-18T01:17:03.732Z,10.70
2023-04-18T01:19:57.728Z,11.07
2023-04-18T01:22:44.770Z,10.82
2023-04-18T01:25:38.723Z,11.93
2023-04-18T01:28:27.671Z,9.48
2023-04-18T01:31:21.822Z,10.40
2023-04-18T01:34:15.870Z,10.05
2023-04-18T01:37:03.056Z,10.20
2023-04-18T01:39:56.869Z,8.30
2023-04-18T01:42:43.989Z,10.10
2023-04-18T01:45:37.801Z,10.65
2023-04-18T01:48:24.926Z,9.45
2023-04-18T01:51:18.968Z,9.30
2023-04-18T01:54:13.022Z,11.10
2023-04-18T01:57:06.853Z,10.07
2023-04-18T02:00:00.819Z,9.45
2023-04-18T02:02:56.892Z,9.35
2023-04-18T02:05:50.834Z,9.02
2023-04-18T02:08:44.873Z,9.30
2023-04-18T02:11:38.861Z,8.88
2023-04-18T02:14:27.988Z,9.75
2023-04-18T02:17:21.873Z,8.93
2023-04-18T02:20:15.835Z,7.93
2023-04-18T02:23:09.840Z,8.45
2023-04-18T02:25:57.009Z,9.30
2023-04-18T02:28:50.847Z,8.43
2023-04-18T02:31:40.332Z,8.07
2023-04-18T02:34:33.883Z,8.00
2023-04-18T02:37:27.888Z,8.07
2023-04-18T02:40:15.224Z,8.02
2023-04-18T02:43:08.911Z,8.55
2023-04-18T02:45:56.281Z,9.10
2023-04-18T02:48:49.840Z,9.15
2023-04-18T02:51:36.948Z,8.63
2023-04-18T02:54:30.955Z,8.95
2023-04-18T02:57:45.894Z,9.05
2023-04-18T03:00:39.875Z,9.95
2023-04-18T03:03:27.053Z,10.68
2023-04-18T03:06:20.960Z,10.32
2023-04-18T03:09:14.856Z,9.38
2023-04-18T03:12:02.443Z,9.30
2023-04-18T03:14:55.864Z,8.45
2023-04-18T03:17:43.168Z,9.07
2023-04-18T03:20:36.922Z,10.18
2023-04-18T03:23:30.983Z,8.93
2023-04-18T03:26:24.920Z,8.52
2023-04-18T03:29:18.997Z,9.82
2023-04-18T03:32:06.138Z,10.60
2023-04-18T03:35:00.943Z,9.23
2023-04-18T03:37:47.993Z,10.05
2023-04-18T03:40:42.007Z,9.65
2023-04-18T03:43:29.063Z,8.27
2023-04-18T03:46:23.027Z,9.63
2023-04-18T03:49:10.291Z,10.38
2023-04-18T03:52:03.998Z,10.13
2023-04-18T03:54:57.961Z,10.35
2023-04-18T03:57:45.207Z,10.45
2023-04-18T04:00:39.041Z,10.70
2023-04-18T04:03:27.920Z,12.18
2023-04-18T04:06:21.993Z,11.63
2023-04-18T04:09:09.147Z,10.98
2023-04-18T04:12:03.032Z,11.25
2023-04-18T04:14:50.150Z,10.10
2023-04-18T04:17:44.051Z,10.20
2023-04-18T04:20:38.002Z,10.57
2023-04-18T04:23:28.148Z,9.90
2023-04-18T04:26:22.055Z,9.32
2023-04-18T04:29:10.722Z,10.52
2023-04-18T04:32:06.130Z,10.60
2023-04-18T04:34:53.746Z,11.05
2023-04-18T04:37:48.058Z,10.55
2023-04-18T04:40:35.085Z,11.27
2023-04-18T04:43:29.093Z,10.90
2023-04-18T04:46:23.293Z,11.90
2023-04-18T04:49:11.667Z,11.93
2023-04-18T04:52:05.025Z,12.00
2023-04-18T04:54:52.188Z,11.15
2023-04-18T04:57:46.062Z,11.85
2023-04-18T05:00:33.135Z,10.68
2023-04-18T05:03:27.224Z,9.88
2023-04-18T05:06:22.048Z,11.30
2023-04-18T05:09:16.118Z,11.82
2023-04-18T05:12:10.060Z,11.85
2023-04-18T05:15:04.128Z,12.80
2023-04-18T05:17:58.131Z,11.90
2023-04-18T05:20:45.308Z,11.00
2023-04-18T05:23:40.133Z,11.43
2023-04-18T05:26:27.304Z,11.75
2023-04-18T05:29:21.133Z,11.68
2023-04-18T05:32:16.131Z,10.23
2023-04-18T05:35:03.323Z,12.65
2023-04-18T05:37:58.181Z,12.88
2023-04-18T05:40:45.265Z,12.68
2023-04-18T05:43:39.090Z,12.30
2023-04-18T05:46:26.265Z,13.10
2023-04-18T05:49:20.161Z,12.90
2023-04-18T05:52:07.360Z,12.13
2023-04-18T05:55:01.191Z,12.77
2023-04-18T05:57:48.371Z,11.68
2023-04-18T06:00:42.225Z,11.82
2023-04-18T06:03:36.419Z,13.05
2023-04-18T06:06:23.944Z,12.88
2023-04-18T06:09:17.172Z,12.55
2023-04-18T06:12:04.748Z,12.07
2023-04-18T06:14:58.184Z,12.75
2023-04-18T06:17:45.338Z,12.10
2023-04-18T06:20:39.200Z,12.63
2023-04-18T06:23:26.425Z,11.70
2023-04-18T06:26:20.193Z,12.45
2023-04-18T06:29:07.348Z,11.20
2023-04-18T06:32:01.311Z,11.80
2023-04-18T06:34:55.194Z,11.75
2023-04-18T06:37:44.877Z,12.85
2023-04-18T06:40:38.253Z,11.98
2023-04-18T06:43:25.470Z,10.20
2023-04-18T06:46:19.317Z,11.52
2023-04-18T06:49:06.582Z,11.82
2023-04-18T06:52:00.286Z,10.70
2023-04-18T06:54:47.417Z,11.77
2023-04-18T06:57:41.601Z,12.63
2023-04-18T07:00:28.867Z,11.75
2023-04-18T07:03:22.484Z,11.63
2023-04-18T07:06:17.310Z,11.82
2023-04-18T07:09:04.442Z,11.30
2023-04-18T07:11:59.334Z,11.10
2023-04-18T07:14:46.482Z,11.10
2023-04-18T07:17:40.323Z,11.02
2023-04-18T07:20:27.570Z,10.30
2023-04-18T07:23:21.323Z,10.95
2023-04-18T07:26:16.291Z,10.98
2023-04-18T07:29:03.494Z,10.20
2023-04-18T07:31:57.361Z,10.38
2023-04-18T07:34:45.166Z,11.23
2023-04-18T07:37:39.346Z,11.13
2023-04-18T07:40:26.480Z,9.77
2023-04-18T07:43:20.852Z,10.15
2023-04-18T07:46:08.409Z,10.00
2023-04-18T07:49:02.376Z,10.55
2023-04-18T07:51:56.386Z,10.50
2023-04-18T07:54:43.560Z,9.25
2023-04-18T07:57:37.334Z,9.15
2023-04-18T08:00:24.592Z,8.10
2023-04-18T08:03:19.521Z,8.48
2023-04-18T08:06:07.148Z,8.10
2023-04-18T08:09:01.376Z,9.45
2023-04-18T08:11:48.923Z,9.35
2023-04-18T08:14:42.379Z,8.48
2023-04-18T08:17:29.558Z,8.82
2023-04-18T08:20:23.443Z,8.73
2023-04-18T08:23:13.030Z,7.85
2023-04-18T08:26:07.362Z,7.07
2023-04-18T08:29:01.431Z,7.93
2023-04-18T08:31:48.652Z,7.68
2023-04-18T08:34:45.499Z,7.25
2023-04-18T08:37:35.372Z,6.93
2023-04-18T08:40:29.452Z,7.30
2023-04-18T08:43:16.725Z,7.57
2023-04-18T08:46:10.467Z,7.57
2023-04-18T08:49:06.481Z,7.93
2023-04-18T08:51:53.556Z,7.05
2023-04-18T08:54:53.440Z,7.30
2023-04-18T08:57:40.528Z,6.70
2023-04-18T09:00:35.486Z,6.85
2023-04-18T09:03:40.102Z,6.63
2023-04-18T09:06:35.490Z,7.40
2023-04-18T09:09:27.461Z,6.90
2023-04-18T09:12:24.576Z,6.32
2023-04-18T09:15:23.513Z,5.80
2023-04-18T09:18:17.553Z,5.35
2023-04-18T09:21:25.504Z,5.28
2023-04-18T09:24:17.840Z,6.43
2023-04-18T09:27:20.510Z,4.78
2023-04-18T09:30:14.561Z,5.47
2023-04-18T09:33:04.996Z,6.15
2023-04-18T09:35:59.549Z,5.68
2023-04-18T09:38:47.422Z,4.65
2023-04-18T09:41:40.541Z,5.28
2023-04-18T09:44:34.529Z,4.25
2023-04-18T09:47:28.762Z,6.10
2023-04-18T09:50:20.613Z,5.95
2023-04-18T09:53:15.577Z,5.57
2023-04-18T09:56:11.600Z,5.57
2023-04-18T09:59:10.088Z,4.68
2023-04-18T10:02:05.639Z,4.65
2023-04-18T10:04:55.565Z,4.35
2023-04-18T10:07:54.606Z,4.65
2023-04-18T10:10:48.541Z,4.60
2023-04-18T10:13:44.718Z,3.78
2023-04-18T10:16:38.679Z,4.28
2023-04-18T10:19:30.099Z,4.28
2023-04-18T10:22:34.593Z,4.00
2023-04-18T10:25:40.007Z,3.80
2023-04-18T10:28:34.599Z,5.20
2023-04-18T10:31:29.754Z,4.55
2023-04-18T10:34:19.681Z,4.90
2023-04-18T10:37:13.652Z,4.88
2023-04-18T10:40:06.752Z,4.70
2023-04-18T10:43:00.646Z,5.13
2023-04-18T10:46:30.397Z,5.63
2023-04-18T10:49:32.626Z,4.95
2023-04-18T10:52:26.596Z,5.60
2023-04-18T10:55:20.317Z,5.80
2023-04-18T10:58:13.566Z,4.72
2023-04-18T11:01:09.635Z,4.57
2023-04-18T11:03:57.344Z,4.82
2023-04-18T11:06:55.636Z,4.40
2023-04-18T11:10:02.650Z,5.03
2023-04-18T11:12:50.687Z,5.57
2023-04-18T11:15:46.735Z,4.88
2023-04-18T11:18:41.405Z,5.18
2023-04-18T11:21:35.703Z,4.47
2023-04-18T11:24:30.703Z,4.45
2023-04-18T11:27:17.955Z,4.05
2023-04-18T11:30:12.682Z,3.95
2023-04-18T11:33:10.988Z,3.88
2023-04-18T11:35:59.578Z,3.88
2023-04-18T11:38:53.710Z,3.58
2023-04-18T11:41:41.717Z,3.97
2023-04-18T11:44:36.305Z,4.05
2023-04-18T11:47:28.998Z,5.10
2023-04-18T11:53:23.726Z,4.93
2023-04-18T11:56:13.673Z,5.03
2023-04-18T11:59:15.732Z,5.15
2023-04-18T12:02:15.720Z,5.30
2023-04-18T12:05:11.129Z,5.03
2023-04-18T12:08:13.306Z,4.03
2023-04-18T12:11:06.791Z,5.50
2023-04-18T12:14:04.192Z,4.38
2023-04-18T12:16:52.153Z,4.95
2023-04-18T12:19:51.886Z,5.80
2023-04-18T12:22:42.110Z,5.82
2023-04-18T12:25:35.720Z,5.78
2023-04-18T12:28:26.744Z,6.82
2023-04-18T12:31:20.950Z,7.88
2023-04-18T12:34:08.105Z,8.30
2023-04-18T12:37:02.043Z,5.57
2023-04-18T12:39:49.207Z,6.82
2023-04-18T12:42:42.792Z,7.85
2023-04-18T12:45:29.928Z,7.22
2023-04-18T12:48:24.090Z,5.82
2023-04-18T12:51:11.300Z,6.97
2023-04-18T12:54:04.828Z,5.72
2023-04-18T12:56:51.957Z,6.38
2023-04-18T12:59:46.221Z,6.03
2023-04-18T13:02:37.241Z,6.28
2023-04-18T13:05:34.344Z,5.32
2023-04-18T13:08:22.902Z,6.57
2023-04-18T13:11:16.844Z,7.18
2023-04-18T13:14:04.035Z,8.40
2023-04-18T13:16:57.888Z,7.82
2023-04-18T13:19:52.200Z,7.40
2023-04-18T13:22:40.557Z,7.90
2023-04-18T13:25:33.936Z,8.18
2023-04-18T13:28:21.176Z,7.03
2023-04-18T13:31:16.924Z,7.00
2023-04-18T13:34:04.383Z,8.52
2023-04-18T13:36:59.061Z,9.25
2023-04-18T13:39:46.332Z,7.80
2023-04-18T13:42:45.087Z,8.30
2023-04-18T13:45:32.207Z,8.52
2023-04-18T13:48:25.899Z,9.13
2023-04-18T13:51:13.063Z,9.50
2023-04-18T13:54:09.914Z,10.13
2023-04-18T13:57:05.967Z,9.73
2023-04-18T13:59:53.093Z,11.75
2023-04-18T14:02:47.159Z,9.90
2023-04-18T14:05:34.427Z,10.23
2023-04-18T14:08:27.929Z,9.32
2023-04-18T14:11:15.140Z,8.13
2023-04-18T14:14:09.195Z,8.30
2023-04-18T14:16:56.402Z,7.32
2023-04-18T14:19:49.933Z,7.88
2023-04-18T14:22:37.063Z,8.43
2023-04-18T14:25:31.234Z,9.20
2023-04-18T14:28:21.550Z,6.63
2023-04-18T14:31:16.205Z,7.40
2023-04-18T14:34:03.341Z,6.72
2023-04-18T14:36:57.232Z,9.63
2023-04-18T14:39:44.472Z,9.10
2023-04-18T14:42:38.120Z,9.60
2023-04-18T14:45:25.278Z,9.85
2023-04-18T14:48:19.358Z,8.13
2023-04-18T14:51:07.121Z,7.80
2023-04-18T14:54:01.051Z,8.23
2023-04-18T14:56:55.005Z,8.02
2023-04-18T14:59:42.173Z,7.20
2023-04-18T15:02:36.304Z,8.43
2023-04-18T15:05:23.857Z,7.13
2023-04-18T15:08:18.072Z,8.18
2023-04-18T15:11:11.758Z,9.43
2023-04-18T15:14:05.049Z,9.13
2023-04-18T15:16:52.337Z,8.52
2023-04-18T15:19:46.071Z,7.63
2023-04-18T15:22:33.972Z,6.38
2023-04-18T15:25:28.025Z,7.50
2023-04-18T15:28:16.108Z,8.68
2023-04-18T15:31:12.155Z,7.80
2023-04-18T15:33:59.269Z,8.10
2023-04-18T15:36:56.351Z,9.05
2023-04-18T15:39:43.507Z,7.05
2023-04-18T15:42:37.133Z,6.43
2023-04-18T15:45:24.259Z,6.15
2023-04-18T15:48:19.180Z,7.00
2023-04-18T15:51:13.209Z,7.10
2023-04-18T15:54:00.809Z,6.65
2023-04-18T15:56:54.298Z,6.55
2023-04-18T15:59:41.445Z,5.72
2023-04-18T16:02:35.472Z,8.13
2023-04-18T16:05:22.701Z,6.97
2023-04-18T16:08:16.111Z,5.95
2023-04-18T16:11:10.233Z,6.45
2023-04-18T16:13:57.368Z,7.10
2023-04-18T16:16:51.293Z,7.32
2023-04-18T16:19:38.935Z,7.03
2023-04-18T16:22:33.103Z,7.25
2023-04-18T16:25:20.437Z,7.47
2023-04-18T16:28:14.156Z,8.30
2023-04-18T16:31:08.201Z,7.10
2023-04-18T16:34:02.172Z,7.88
2023-04-18T16:36:51.128Z,8.77
2023-04-18T16:39:45.188Z,7.55
2023-04-18T16:42:33.134Z,7.70
2023-04-18T16:45:27.142Z,7.78
2023-04-18T16:48:14.274Z,7.45
2023-04-18T16:51:08.147Z,6.82
2023-04-18T16:53:55.594Z,6.93
2023-04-18T16:56:51.364Z,10.10
2023-04-18T16:59:38.645Z,8.93
2023-04-18T17:02:33.446Z,10.88
2023-04-18T17:05:21.529Z,9.23
2023-04-18T17:08:15.228Z,9.65
2023-04-18T17:11:02.529Z,11.48
2023-04-18T17:13:57.248Z,13.82
2023-04-18T17:16:44.515Z,14.23
2023-04-18T17:19:38.225Z,12.65
2023-04-18T17:22:25.264Z,9.60
2023-04-18T17:25:19.496Z,8.23
2023-04-18T17:28:06.639Z,8.43
2023-04-18T17:31:00.248Z,6.90
2023-04-18T17:33:47.328Z,6.47
2023-04-18T17:36:41.277Z,5.43
2023-04-18T17:39:28.563Z,5.95
2023-04-18T17:42:22.245Z,6.47
2023-04-18T17:45:10.248Z,6.18
2023-04-18T17:48:06.823Z,6.22
2023-04-18T17:50:53.926Z,7.00
2023-04-18T17:53:47.386Z,8.48
2023-04-18T17:56:34.797Z,7.18
2023-04-18T17:59:28.444Z,6.47
2023-04-18T18:02:15.856Z,8.35
2023-04-18T18:05:09.257Z,5.03
2023-04-18T18:07:57.598Z,6.22
2023-04-18T18:10:53.352Z,6.85
2023-04-18T18:13:40.442Z,7.10
2023-04-18T18:16:34.363Z,6.13
2023-04-18T18:19:21.496Z,7.20
2023-04-18T18:22:16.268Z,5.75
2023-04-18T18:25:05.323Z,5.90
2023-04-18T18:28:01.353Z,4.80
2023-04-18T18:30:48.516Z,5.10
2023-04-18T18:33:42.316Z,4.63
2023-04-18T18:36:29.492Z,5.65
2023-04-18T18:39:23.318Z,5.00
2023-04-18T18:42:17.348Z,4.28
2023-04-18T18:45:11.370Z,5.18
2023-04-18T18:47:58.648Z,5.43
2023-04-18T18:50:52.344Z,5.28
2023-04-18T18:53:40.464Z,5.78
2023-04-18T18:56:34.405Z,5.00
2023-04-18T18:59:21.453Z,5.80
2023-04-18T19:02:15.593Z,6.13
2023-04-18T19:05:10.380Z,6.13
2023-04-18T19:07:57.502Z,6.57
2023-04-18T19:10:51.464Z,6.07
2023-04-18T19:13:45.377Z,6.07
2023-04-18T19:16:34.019Z,8.02
2023-04-18T19:19:27.434Z,7.30
2023-04-18T19:22:21.443Z,7.10
2023-04-18T19:25:16.435Z,7.80
2023-04-18T19:28:05.863Z,6.40
2023-04-18T19:30:59.423Z,6.32
2023-04-18T19:33:46.551Z,6.70
2023-04-18T19:36:40.495Z,7.57
2023-04-18T19:39:27.746Z,7.38
2023-04-18T19:42:21.737Z,7.40
2023-04-18T19:45:17.487Z,7.32
2023-04-18T19:48:05.296Z,7.20
2023-04-18T19:50:59.517Z,7.47
2023-04-18T19:53:53.495Z,7.97
2023-04-18T19:56:47.450Z,6.95
2023-04-18T19:59:41.499Z,6.32
2023-04-18T20:02:28.804Z,6.28
2023-04-18T20:05:22.736Z,6.78
2023-04-18T20:08:16.545Z,5.35
2023-04-18T20:11:10.841Z,5.88
2023-04-18T20:14:04.524Z,5.97
2023-04-18T20:16:58.574Z,5.75
2023-04-18T20:19:49.558Z,7.90
2023-04-18T20:22:44.498Z,7.15
2023-04-18T20:25:40.464Z,7.57
2023-04-18T20:28:34.487Z,7.47
2023-04-18T20:31:28.535Z,7.13
2023-04-18T20:34:22.551Z,7.20
2023-04-18T20:37:10.108Z,6.88
2023-04-18T20:40:05.565Z,6.38
2023-04-18T20:42:54.447Z,5.88
2023-04-18T20:45:49.536Z,5.72
2023-04-18T20:48:36.668Z,7.45
2023-04-18T20:51:30.543Z,7.40
2023-04-18T20:54:17.799Z,6.57
2023-04-18T20:57:11.530Z,5.90
2023-04-18T21:00:06.584Z,6.95
2023-04-18T21:03:00.809Z,6.50
2023-04-18T21:05:48.053Z,5.97
2023-04-18T21:08:44.558Z,5.82
2023-04-18T21:11:38.575Z,6.65
2023-04-18T21:14:32.572Z,6.80
2023-04-18T21:17:26.650Z,6.03
2023-04-18T21:20:20.634Z,5.80
2023-04-18T21:23:14.594Z,5.55
2023-04-18T21:26:01.707Z,6.10
2023-04-18T21:29:11.627Z,5.88
2023-04-18T21:32:05.594Z,5.20
2023-04-18T21:34:52.713Z,7.68
2023-04-18T21:37:46.649Z,6.30
2023-04-18T21:40:33.861Z,6.18
2023-04-18T21:43:27.679Z,6.18
2023-04-18T21:46:21.754Z,6.18
2023-04-18T21:49:15.687Z,6.05
2023-04-18T21:52:09.753Z,5.63
2023-04-18T21:55:03.596Z,6.72
2023-04-18T21:57:50.684Z,6.88
2023-04-18T22:00:44.681Z,6.20
2023-04-18T22:03:40.738Z,6.18
2023-04-18T22:06:29.831Z,5.88
2023-04-18T22:09:25.616Z,6.90
2023-04-18T22:12:14.117Z,6.25
2023-04-18T22:15:07.760Z,7.25
2023-04-18T22:18:01.669Z,6.20
2023-04-18T22:20:55.665Z,5.80
2023-04-18T22:23:49.641Z,5.75
2023-04-18T22:26:36.659Z,5.43
2023-04-18T22:29:30.668Z,5.05
2023-04-18T22:32:17.795Z,4.80
2023-04-18T22:35:11.681Z,5.38
2023-04-18T22:37:58.783Z,5.68
2023-04-18T22:40:52.667Z,5.65
2023-04-18T22:43:39.709Z,5.15
2023-04-18T22:46:33.775Z,5.10
2023-04-18T22:49:22.353Z,5.00
2023-04-18T22:52:15.772Z,4.60
2023-04-18T22:55:03.457Z,5.55
2023-04-18T22:57:56.770Z,4.97
2023-04-18T23:00:50.750Z,5.28
2023-04-18T23:03:44.941Z,5.95
2023-04-18T23:06:32.493Z,5.95
2023-04-18T23:09:25.723Z,5.90
2023-04-18T23:12:19.742Z,5.30
2023-04-18T23:15:07.412Z,6.75
2023-04-18T23:18:00.864Z,7.22
2023-04-18T23:20:54.801Z,7.10
2023-04-18T23:23:48.768Z,6.88
2023-04-18T23:26:42.767Z,6.47
2023-04-18T23:29:29.894Z,6.50
2023-04-18T23:32:23.865Z,5.90
2023-04-18T23:35:17.956Z,6.50
2023-04-18T23:38:11.786Z,6.72
2023-04-18T23:40:58.881Z,7.93
2023-04-18T23:43:52.783Z,6.63
2023-04-18T23:46:39.940Z,6.45
2023-04-18T23:49:34.865Z,6.20
2023-04-18T23:52:22.732Z,6.40
2023-04-18T23:55:16.864Z,6.20
2023-04-18T23:58:04.061Z,8.15
